logo
Search for airport 
image banner adimage banner adimage banner ad
image banner ad

LZVELI - Velka Ida

Located in Košice, Slovakia

ICAO - , IATA -

Data provided by Airmate  

General information

Coordinates: N48°35'49" E21°9'31"
Elevation is 705 feet MSL.
 
View others Airports in Košice

Operational data

Special qualification required
Current time UTC:
Current local time:
Weather at : LZKZ - Kosice ( 10 km )
METAR: LZKZ 140130Z VRB01KT CAVOK 10/08 Q1021 NOSIG
TAF: TAF LZKZ 132315Z 1400/1500 VRB02KT CAVOK BECMG 1408/1410 21010KT TEMPO 1409/1416 24015G25KT BECMG 1418/1420 VRB02KT
View NOTAMs / SUP AIP / TFR affecting this airport [VIEW]
Communications frequencies: [VIEW]

Runways:

RWY identifierQFULength (ft)Width (ft)SurfaceLDA (ft)
0112°169049ASPH1690
19192°169049ASPH1690

Airport contact information

Address: Košice Slovakia

Satellite view of LZVELI